sensor_id;sensor_type;location;lat;lon;timestamp;pressure;altitude;pressure_sealevel;temperature;humidity
11001;BME280;5553;48.506;8.870;2022-09-27T00:01:51;94885.88;;;7.96;100.00
11001;BME280;5553;48.506;8.870;2022-09-27T00:04:19;94889.09;;;7.98;100.00
11001;BME280;5553;48.506;8.870;2022-09-27T00:06:47;94887.50;;;7.97;100.00
11001;BME280;5553;48.506;8.870;2022-09-27T00:09:18;94880.25;;;7.93;100.00
11001;BME280;5553;48.506;8.870;2022-09-27T00:11:46;94881.44;;;7.97;100.00
11001;BME280;5553;48.506;8.870;2022-09-27T00:14:16;94874.13;;;7.99;100.00
11001;BME280;5553;48.506;8.870;2022-09-27T00:16:45;94878.59;;;7.98;100.00
11001;BME280;5553;48.506;8.870;2022-09-27T00:19:14;94885.06;;;7.96;100.00
11001;BME280;5553;48.506;8.870;2022-09-27T00:21:44;94885.88;;;7.96;100.00
11001;BME280;5553;48.506;8.870;2022-09-27T00:24:13;94889.03;;;8.05;100.00
11001;BME280;5553;48.506;8.870;2022-09-27T00:26:45;94886.84;;;8.02;100.00
11001;BME280;5553;48.506;8.870;2022-09-27T00:29:16;94872.16;;;7.94;100.00
11001;BME280;5553;48.506;8.870;2022-09-27T00:31:45;94872.25;;;8.06;100.00
11001;BME280;5553;48.506;8.870;2022-09-27T00:34:17;94870.06;;;8.03;100.00
11001;BME280;5553;48.506;8.870;2022-09-27T00:36:46;94878.78;;;8.03;100.00
11001;BME280;5553;48.506;8.870;2022-09-27T00:39:15;94867.84;;;8.00;100.00
11001;BME280;5553;48.506;8.870;2022-09-27T00:41:46;94866.50;;;7.97;100.00
11001;BME280;5553;48.506;8.870;2022-09-27T00:44:54;94874.94;;;7.99;100.00
11001;BME280;5553;48.506;8.870;2022-09-27T00:47:29;94872.75;;;7.96;100.00
11001;BME280;5553;48.506;8.870;2022-09-27T00:50:05;94872.16;;;7.94;100.00
11001;BME280;5553;48.506;8.870;2022-09-27T00:52:41;94871.75;;;7.97;100.00
11001;BME280;5553;48.506;8.870;2022-09-27T00:55:15;94873.53;;;8.03;100.00
11001;BME280;5553;48.506;8.870;2022-09-27T00:57:47;94874.88;;;8.06;100.00
11001;BME280;5553;48.506;8.870;2022-09-27T01:00:16;94872.06;;;8.07;100.00
11001;BME280;5553;48.506;8.870;2022-09-27T01:02:47;94884.78;;;8.11;100.00
11001;BME280;5553;48.506;8.870;2022-09-27T01:05:19;94876.06;;;8.10;100.00
11001;BME280;5553;48.506;8.870;2022-09-27T01:07:48;94878.91;;;8.08;100.00
11001;BME280;5553;48.506;8.870;2022-09-27T01:10:22;94889.19;;;8.10;100.00
11001;BME280;5553;48.506;8.870;2022-09-27T01:12:57;94879.50;;;8.11;100.00
11001;BME280;5553;48.506;8.870;2022-09-27T01:15:36;94878.50;;;8.12;100.00
11001;BME280;5553;48.506;8.870;2022-09-27T01:18:17;94878.50;;;8.12;100.00
11001;BME280;5553;48.506;8.870;2022-09-27T01:21:13;94890.22;;;8.09;100.00
11001;BME280;5553;48.506;8.870;2022-09-27T01:23:58;94881.91;;;8.12;100.00
11001;BME280;5553;48.506;8.870;2022-09-27T01:26:45;94888.41;;;8.10;100.00
11001;BME280;5553;48.506;8.870;2022-09-27T01:29:26;94893.44;;;8.11;100.00
11001;BME280;5553;48.506;8.870;2022-09-27T01:32:04;94884.78;;;8.11;100.00
11001;BME280;5553;48.506;8.870;2022-09-27T01:34:42;94880.84;;;8.20;100.00
11001;BME280;5553;48.506;8.870;2022-09-27T01:37:18;94872.94;;;8.20;100.00
11001;BME280;5553;48.506;8.870;2022-09-27T01:39:50;94871.13;;;8.20;100.00
11001;BME280;5553;48.506;8.870;2022-09-27T01:42:25;94869.31;;;8.21;100.00
11001;BME280;5553;48.506;8.870;2022-09-27T01:45:00;94878.81;;;8.22;100.00
11001;BME280;5553;48.506;8.870;2022-09-27T01:47:36;94881.00;;;8.25;100.00
11001;BME280;5553;48.506;8.870;2022-09-27T01:50:10;94888.94;;;8.18;100.00
11001;BME280;5553;48.506;8.870;2022-09-27T01:52:43;94886.47;;;8.23;100.00
11001;BME280;5553;48.506;8.870;2022-09-27T01:55:16;94888.88;;;8.25;100.00
11001;BME280;5553;48.506;8.870;2022-09-27T01:57:51;94886.81;;;8.27;100.00
11001;BME280;5553;48.506;8.870;2022-09-27T02:00:22;94898.16;;;8.27;100.00
11001;BME280;5553;48.506;8.870;2022-09-27T02:03:09;94899.97;;;8.27;100.00
11001;BME280;5553;48.506;8.870;2022-09-27T02:05:43;94910.47;;;8.27;100.00
11001;BME280;5553;48.506;8.870;2022-09-27T02:08:18;94917.13;;;8.29;100.00
11001;BME280;5553;48.506;8.870;2022-09-27T02:10:50;94918.72;;;8.30;100.00
11001;BME280;5553;48.506;8.870;2022-09-27T02:13:23;94926.63;;;8.30;100.00
11001;BME280;5553;48.506;8.870;2022-09-27T02:15:58;94919.19;;;8.27;100.00
11001;BME280;5553;48.506;8.870;2022-09-27T02:18:45;94921.81;;;8.27;100.00
11001;BME280;5553;48.506;8.870;2022-09-27T02:21:18;94920.00;;;8.28;100.00
11001;BME280;5553;48.506;8.870;2022-09-27T02:23:51;94928.28;;;8.25;100.00
11001;BME280;5553;48.506;8.870;2022-09-27T02:26:25;94933.91;;;8.28;100.00
11001;BME280;5553;48.506;8.870;2022-09-27T02:28:57;94934.88;;;8.34;100.00
11001;BME280;5553;48.506;8.870;2022-09-27T02:31:27;94937.28;;;8.36;100.00
11001;BME280;5553;48.506;8.870;2022-09-27T02:34:00;94931.81;;;8.37;100.00
11001;BME280;5553;48.506;8.870;2022-09-27T02:36:29;94923.09;;;8.43;100.00
11001;BME280;5553;48.506;8.870;2022-09-27T02:38:58;94918.31;;;8.34;100.00
11001;BME280;5553;48.506;8.870;2022-09-27T02:41:27;94914.03;;;8.39;100.00
11001;BME280;5553;48.506;8.870;2022-09-27T02:43:58;94901.72;;;8.40;100.00
11001;BME280;5553;48.506;8.870;2022-09-27T02:46:42;94901.13;;;8.38;100.00
11001;BME280;5553;48.506;8.870;2022-09-27T02:49:28;94895.44;;;8.34;100.00
11001;BME280;5553;48.506;8.870;2022-09-27T02:52:08;94893.13;;;8.26;100.00
11001;BME280;5553;48.506;8.870;2022-09-27T02:54:44;94894.19;;;8.18;100.00
11001;BME280;5553;48.506;8.870;2022-09-27T02:57:25;94890.59;;;8.13;100.00
11001;BME280;5553;48.506;8.870;2022-09-27T03:00:04;94889.75;;;8.19;100.00
11001;BME280;5553;48.506;8.870;2022-09-27T03:02:42;94872.63;;;8.10;100.00
11001;BME280;5553;48.506;8.870;2022-09-27T03:05:20;94866.94;;;8.13;100.00
11001;BME280;5553;48.506;8.870;2022-09-27T03:07:50;94862.34;;;8.08;100.00
11001;BME280;5553;48.506;8.870;2022-09-27T03:10:20;94866.88;;;8.01;100.00
11001;BME280;5553;48.506;8.870;2022-09-27T03:12:49;94865.63;;;8.03;100.00
11001;BME280;5553;48.506;8.870;2022-09-27T03:15:17;94870.56;;;7.93;100.00
11001;BME280;5553;48.506;8.870;2022-09-27T03:17:46;94869.91;;;7.98;100.00
11001;BME280;5553;48.506;8.870;2022-09-27T03:20:14;94869.31;;;7.96;100.00
11001;BME280;5553;48.506;8.870;2022-09-27T03:22:45;94884.50;;;7.94;100.00
11001;BME280;5553;48.506;8.870;2022-09-27T03:25:13;94883.53;;;7.88;100.00
11001;BME280;5553;48.506;8.870;2022-09-27T03:27:42;94887.22;;;7.80;100.00
11001;BME280;5553;48.506;8.870;2022-09-27T03:30:12;94892.25;;;7.82;100.00
11001;BME280;5553;48.506;8.870;2022-09-27T03:32:41;94899.31;;;7.81;100.00
11001;BME280;5553;48.506;8.870;2022-09-27T03:35:10;94898.94;;;7.78;100.00
11001;BME280;5553;48.506;8.870;2022-09-27T03:37:38;94901.19;;;7.74;100.00
11001;BME280;5553;48.506;8.870;2022-09-27T03:40:09;94897.97;;;7.72;100.00
11001;BME280;5553;48.506;8.870;2022-09-27T03:42:38;94894.16;;;7.68;100.00
11001;BME280;5553;48.506;8.870;2022-09-27T03:45:07;94900.06;;;7.64;100.00
11001;BME280;5553;48.506;8.870;2022-09-27T03:47:38;94894.19;;;7.62;100.00
11001;BME280;5553;48.506;8.870;2022-09-27T03:50:08;94900.06;;;7.64;100.00
11001;BME280;5553;48.506;8.870;2022-09-27T03:52:37;94907.53;;;7.60;100.00
11001;BME280;5553;48.506;8.870;2022-09-27T03:55:09;94908.34;;;7.60;100.00
11001;BME280;5553;48.506;8.870;2022-09-27T03:57:38;94910.22;;;7.53;100.00
11001;BME280;5553;48.506;8.870;2022-09-27T04:00:08;94916.47;;;7.52;100.00
11001;BME280;5553;48.506;8.870;2022-09-27T04:02:37;94916.91;;;7.49;100.00
11001;BME280;5553;48.506;8.870;2022-09-27T04:05:05;94919.94;;;7.46;100.00
11001;BME280;5553;48.506;8.870;2022-09-27T04:07:34;94925.94;;;7.53;100.00
11001;BME280;5553;48.506;8.870;2022-09-27T04:10:03;94927.56;;;7.54;100.00
11001;BME280;5553;48.506;8.870;2022-09-27T04:12:34;94932.00;;;7.54;100.00
11001;BME280;5553;48.506;8.870;2022-09-27T04:15:02;94928.97;;;7.57;100.00
11001;BME280;5553;48.506;8.870;2022-09-27T04:17:32;94934.41;;;7.55;100.00
11001;BME280;5553;48.506;8.870;2022-09-27T04:20:00;94935.44;;;7.54;100.00
11001;BME280;5553;48.506;8.870;2022-09-27T04:22:29;94937.69;;;7.44;100.00
11001;BME280;5553;48.506;8.870;2022-09-27T04:24:57;94942.38;;;7.42;100.00
11001;BME280;5553;48.506;8.870;2022-09-27T04:27:26;94945.41;;;7.39;100.00
11001;BME280;5553;48.506;8.870;2022-09-27T04:29:57;94947.25;;;7.32;100.00
11001;BME280;5553;48.506;8.870;2022-09-27T04:32:25;94956.13;;;7.31;100.00
11001;BME280;5553;48.506;8.870;2022-09-27T04:34:53;94965.41;;;7.33;100.00
11001;BME280;5553;48.506;8.870;2022-09-27T04:37:34;94964.41;;;7.28;100.00
11001;BME280;5553;48.506;8.870;2022-09-27T04:40:03;94976.34;;;7.24;100.00
11001;BME280;5553;48.506;8.870;2022-09-27T04:42:32;94979.56;;;7.26;100.00
11001;BME280;5553;48.506;8.870;2022-09-27T04:45:04;94983.22;;;7.25;100.00
11001;BME280;5553;48.506;8.870;2022-09-27T04:47:32;94986.44;;;7.20;100.00
11001;BME280;5553;48.506;8.870;2022-09-27T04:50:01;94991.69;;;7.20;100.00
11001;BME280;5553;48.506;8.870;2022-09-27T04:52:29;94990.50;;;7.16;100.00
11001;BME280;5553;48.506;8.870;2022-09-27T04:54:57;94991.09;;;7.18;100.00
11001;BME280;5553;48.506;8.870;2022-09-27T04:57:25;94988.88;;;7.15;100.00
11001;BME280;5553;48.506;8.870;2022-09-27T04:59:54;94990.72;;;7.15;100.00
11001;BME280;5553;48.506;8.870;2022-09-27T05:02:27;94988.50;;;7.11;100.00
11001;BME280;5553;48.506;8.870;2022-09-27T05:04:56;94978.59;;;7.07;100.00
11001;BME280;5553;48.506;8.870;2022-09-27T05:07:24;94984.88;;;7.06;100.00
11001;BME280;5553;48.506;8.870;2022-09-27T05:09:53;94977.63;;;7.01;100.00
11001;BME280;5553;48.506;8.870;2022-09-27T05:12:21;94983.28;;;6.98;100.00
11001;BME280;5553;48.506;8.870;2022-09-27T05:14:51;94986.50;;;7.00;100.00
11001;BME280;5553;48.506;8.870;2022-09-27T05:17:19;94989.13;;;7.00;100.00
11001;BME280;5553;48.506;8.870;2022-09-27T05:19:50;94982.66;;;7.03;100.00
11001;BME280;5553;48.506;8.870;2022-09-27T05:22:18;94990.50;;;7.09;100.00
11001;BME280;5553;48.506;8.870;2022-09-27T05:24:47;94989.72;;;7.09;100.00
11001;BME280;5553;48.506;8.870;2022-09-27T05:27:15;94997.34;;;7.10;100.00
11001;BME280;5553;48.506;8.870;2022-09-27T05:29:45;95007.03;;;7.17;100.00
11001;BME280;5553;48.506;8.870;2022-09-27T05:32:14;95013.50;;;7.14;100.00
11001;BME280;5553;48.506;8.870;2022-09-27T05:34:42;95030.25;;;7.13;100.00
11001;BME280;5553;48.506;8.870;2022-09-27T05:37:13;95032.25;;;7.11;100.00
11001;BME280;5553;48.506;8.870;2022-09-27T05:39:42;95038.50;;;7.17;100.00
11001;BME280;5553;48.506;8.870;2022-09-27T05:42:10;95044.16;;;7.13;100.00
11001;BME280;5553;48.506;8.870;2022-09-27T05:44:39;95044.56;;;7.17;100.00
11001;BME280;5553;48.506;8.870;2022-09-27T05:47:10;95055.03;;;7.17;100.00
11001;BME280;5553;48.506;8.870;2022-09-27T05:49:38;95052.41;;;7.17;100.00
11001;BME280;5553;48.506;8.870;2022-09-27T05:52:07;95057.06;;;7.22;100.00
11001;BME280;5553;48.506;8.870;2022-09-27T05:54:38;95062.50;;;7.20;100.00
11001;BME280;5553;48.506;8.870;2022-09-27T05:57:06;95069.34;;;7.21;100.00
11001;BME280;5553;48.506;8.870;2022-09-27T05:59:35;95073.22;;;7.19;100.00
11001;BME280;5553;48.506;8.870;2022-09-27T06:02:03;95074.81;;;7.26;100.00
11001;BME280;5553;48.506;8.870;2022-09-27T06:04:31;95082.28;;;7.23;100.00
11001;BME280;5553;48.506;8.870;2022-09-27T06:06:59;95084.69;;;7.24;100.00
11001;BME280;5553;48.506;8.870;2022-09-27T06:09:28;95084.50;;;7.26;100.00
11001;BME280;5553;48.506;8.870;2022-09-27T06:11:59;95097.38;;;7.34;100.00
11001;BME280;5553;48.506;8.870;2022-09-27T06:14:27;95108.69;;;7.28;100.00
11001;BME280;5553;48.506;8.870;2022-09-27T06:16:55;95105.28;;;7.27;100.00
11001;BME280;5553;48.506;8.870;2022-09-27T06:19:24;95105.66;;;7.31;100.00
11001;BME280;5553;48.506;8.870;2022-09-27T06:21:52;95106.69;;;7.30;100.00
11001;BME280;5553;48.506;8.870;2022-09-27T06:24:20;95107.09;;;7.27;100.00
11001;BME280;5553;48.506;8.870;2022-09-27T06:26:48;95107.09;;;7.33;100.00
11001;BME280;5553;48.506;8.870;2022-09-27T06:29:19;95107.09;;;7.33;100.00
11001;BME280;5553;48.506;8.870;2022-09-27T06:31:48;95083.28;;;7.35;100.00
11001;BME280;5553;48.506;8.870;2022-09-27T06:34:16;95096.41;;;7.35;100.00
11001;BME280;5553;48.506;8.870;2022-09-27T06:36:44;95090.53;;;7.33;100.00
11001;BME280;5553;48.506;8.870;2022-09-27T06:39:13;95087.28;;;7.44;100.00
11001;BME280;5553;48.506;8.870;2022-09-27T06:41:41;95082.03;;;7.44;100.00
11001;BME280;5553;48.506;8.870;2022-09-27T06:44:09;95081.19;;;7.57;100.00
11001;BME280;5553;48.506;8.870;2022-09-27T06:46:41;95083.19;;;7.55;100.00
11001;BME280;5553;48.506;8.870;2022-09-27T06:49:10;95079.81;;;7.41;100.00
11001;BME280;5553;48.506;8.870;2022-09-27T06:51:38;95074.75;;;7.46;100.00
11001;BME280;5553;48.506;8.870;2022-09-27T06:54:06;95076.59;;;7.46;100.00
11001;BME280;5553;48.506;8.870;2022-09-27T06:56:34;95074.75;;;7.46;100.00
11001;BME280;5553;48.506;8.870;2022-09-27T06:59:03;95092.50;;;7.51;100.00
11001;BME280;5553;48.506;8.870;2022-09-27T07:01:46;95099.16;;;7.53;100.00
11001;BME280;5553;48.506;8.870;2022-09-27T07:04:16;95098.06;;;7.81;100.00
11001;BME280;5553;48.506;8.870;2022-09-27T07:06:45;95102.06;;;7.90;100.00
11001;BME280;5553;48.506;8.870;2022-09-27T07:09:14;95100.84;;;7.86;100.00
11001;BME280;5553;48.506;8.870;2022-09-27T07:11:42;95102.91;;;7.84;100.00
11001;BME280;5553;48.506;8.870;2022-09-27T07:14:10;95117.25;;;7.75;100.00
11001;BME280;5553;48.506;8.870;2022-09-27T07:16:38;95117.88;;;7.77;100.00
11001;BME280;5553;48.506;8.870;2022-09-27T07:19:10;95116.00;;;7.91;100.00
11001;BME280;5553;48.506;8.870;2022-09-27T07:21:39;95123.03;;;8.03;100.00
11001;BME280;5553;48.506;8.870;2022-09-27T07:24:07;95135.44;;;8.28;100.00
11001;BME280;5553;48.506;8.870;2022-09-27T07:26:35;95124.28;;;8.39;100.00
11001;BME280;5553;48.506;8.870;2022-09-27T07:29:04;95122.22;;;7.96;100.00
11001;BME280;5553;48.506;8.870;2022-09-27T07:31:32;95108.53;;;7.88;100.00
11001;BME280;5553;48.506;8.870;2022-09-27T07:34:01;95109.38;;;7.81;100.00
11001;BME280;5553;48.506;8.870;2022-09-27T07:36:32;95105.69;;;7.89;100.00
11001;BME280;5553;48.506;8.870;2022-09-27T07:39:00;95101.75;;;7.73;100.00
11001;BME280;5553;48.506;8.870;2022-09-27T07:41:28;95099.63;;;7.95;100.00
11001;BME280;5553;48.506;8.870;2022-09-27T07:43:57;95098.19;;;7.99;100.00
11001;BME280;5553;48.506;8.870;2022-09-27T07:46:25;95098.22;;;7.93;100.00
11001;BME280;5553;48.506;8.870;2022-09-27T07:48:53;95100.97;;;7.59;100.00
11001;BME280;5553;48.506;8.870;2022-09-27T07:51:22;95102.63;;;7.41;100.00
11001;BME280;5553;48.506;8.870;2022-09-27T07:53:52;95125.53;;;8.23;100.00
11001;BME280;5553;48.506;8.870;2022-09-27T07:56:21;95115.63;;;8.64;100.00
11001;BME280;5553;48.506;8.870;2022-09-27T07:58:49;95123.66;;;8.44;100.00
11001;BME280;5553;48.506;8.870;2022-09-27T08:03:23;95121.47;;;8.97;100.00
11001;BME280;5553;48.506;8.870;2022-09-27T08:06:01;95126.00;;;8.59;100.00
11001;BME280;5553;48.506;8.870;2022-09-27T08:08:35;95131.28;;;8.52;100.00
11001;BME280;5553;48.506;8.870;2022-09-27T08:11:13;95136.50;;;8.59;100.00
11001;BME280;5553;48.506;8.870;2022-09-27T08:13:41;95130.63;;;9.38;100.00
11001;BME280;5553;48.506;8.870;2022-09-27T08:16:10;95129.03;;;9.74;100.00
11001;BME280;5553;48.506;8.870;2022-09-27T08:18:39;95135.72;;;10.25;100.00
11001;BME280;5553;48.506;8.870;2022-09-27T08:21:07;95134.59;;;10.03;100.00
11001;BME280;5553;48.506;8.870;2022-09-27T08:23:35;95138.03;;;10.40;100.00
11001;BME280;5553;48.506;8.870;2022-09-27T08:26:04;95130.31;;;9.71;100.00
11001;BME280;5553;48.506;8.870;2022-09-27T08:28:34;95133.28;;;9.13;100.00
11001;BME280;5553;48.506;8.870;2022-09-27T08:31:03;95139.22;;;8.77;100.00
11001;BME280;5553;48.506;8.870;2022-09-27T08:33:31;95152.09;;;8.53;100.00
11001;BME280;5553;48.506;8.870;2022-09-27T08:36:00;95163.84;;;7.99;100.00
11001;BME280;5553;48.506;8.870;2022-09-27T08:38:28;95171.63;;;7.68;100.00
11001;BME280;5553;48.506;8.870;2022-09-27T08:40:59;95179.75;;;7.06;100.00
11001;BME280;5553;48.506;8.870;2022-09-27T08:43:38;95199.31;;;7.10;100.00
11001;BME280;5553;48.506;8.870;2022-09-27T08:46:19;95204.34;;;6.92;100.00
11001;BME280;5553;48.506;8.870;2022-09-27T08:48:52;95203.53;;;6.92;100.00
11001;BME280;5553;48.506;8.870;2022-09-27T08:51:29;95221.50;;;6.95;100.00
11001;BME280;5553;48.506;8.870;2022-09-27T08:54:01;95222.47;;;6.87;100.00
11001;BME280;5553;48.506;8.870;2022-09-27T08:56:33;95226.34;;;6.91;100.00
11001;BME280;5553;48.506;8.870;2022-09-27T08:59:12;95236.44;;;7.14;100.00
11001;BME280;5553;48.506;8.870;2022-09-27T09:01:45;95244.31;;;7.21;100.00
11001;BME280;5553;48.506;8.870;2022-09-27T09:04:17;95241.28;;;7.64;100.00
11001;BME280;5553;48.506;8.870;2022-09-27T09:06:56;95228.72;;;7.92;100.00
11001;BME280;5553;48.506;8.870;2022-09-27T09:09:37;95227.44;;;8.21;100.00
11001;BME280;5553;48.506;8.870;2022-09-27T09:12:16;95229.25;;;8.21;100.00
11001;BME280;5553;48.506;8.870;2022-09-27T09:15:12;95238.38;;;8.05;100.00
11001;BME280;5553;48.506;8.870;2022-09-27T09:17:54;95230.59;;;9.45;100.00
11001;BME280;5553;48.506;8.870;2022-09-27T09:20:32;95226.22;;;10.26;100.00
11001;BME280;5553;48.506;8.870;2022-09-27T09:25:58;95189.78;;;9.79;100.00
11001;BME280;5553;48.506;8.870;2022-09-27T09:28:40;95189.38;;;9.07;100.00
11001;BME280;5553;48.506;8.870;2022-09-27T09:31:21;95185.88;;;8.50;100.00
11001;BME280;5553;48.506;8.870;2022-09-27T09:33:57;95188.03;;;10.10;100.00
11001;BME280;5553;48.506;8.870;2022-09-27T09:36:30;95190.66;;;10.10;100.00
11001;BME280;5553;48.506;8.870;2022-09-27T09:39:03;95184.88;;;10.01;100.00
11001;BME280;5553;48.506;8.870;2022-09-27T09:41:37;95186.63;;;10.07;100.00
11001;BME280;5553;48.506;8.870;2022-09-27T09:44:14;95182.50;;;9.56;100.00
11001;BME280;5553;48.506;8.870;2022-09-27T09:46:50;95184.66;;;9.16;100.00
11001;BME280;5553;48.506;8.870;2022-09-27T09:49:23;95183.66;;;8.85;100.00
11001;BME280;5553;48.506;8.870;2022-09-27T09:51:57;95176.72;;;9.47;100.00
11001;BME280;5553;48.506;8.870;2022-09-27T09:54:29;95165.13;;;10.10;100.00
11001;BME280;5553;48.506;8.870;2022-09-27T09:57:03;95155.44;;;9.67;100.00
11001;BME280;5553;48.506;8.870;2022-09-27T09:59:37;95145.66;;;9.75;100.00
11001;BME280;5553;48.506;8.870;2022-09-27T10:02:21;95143.38;;;9.60;100.00
11001;BME280;5553;48.506;8.870;2022-09-27T10:04:52;95153.34;;;9.76;100.00
11001;BME280;5553;48.506;8.870;2022-09-27T10:07:22;95151.72;;;9.93;100.00
11001;BME280;5553;48.506;8.870;2022-09-27T10:09:52;95147.03;;;10.14;100.00
11001;BME280;5553;48.506;8.870;2022-09-27T10:12:22;95139.19;;;9.70;100.00
11001;BME280;5553;48.506;8.870;2022-09-27T10:14:52;95136.88;;;9.99;100.00
11001;BME280;5553;48.506;8.870;2022-09-27T10:17:26;95133.66;;;9.97;100.00
11001;BME280;5553;48.506;8.870;2022-09-27T10:20:02;95142.06;;;10.06;100.00
11001;BME280;5553;48.506;8.870;2022-09-27T10:22:35;95125.31;;;9.63;100.00
11001;BME280;5553;48.506;8.870;2022-09-27T10:25:07;95134.59;;;9.66;100.00
11001;BME280;5553;48.506;8.870;2022-09-27T10:27:38;95144.63;;;10.12;100.00
11001;BME280;5553;48.506;8.870;2022-09-27T10:30:21;95142.34;;;10.64;100.00
11001;BME280;5553;48.506;8.870;2022-09-27T10:32:55;95135.97;;;10.42;100.00
11001;BME280;5553;48.506;8.870;2022-09-27T10:35:34;95125.59;;;10.29;100.00
11001;BME280;5553;48.506;8.870;2022-09-27T10:38:18;95122.84;;;11.66;100.00
11001;BME280;5553;48.506;8.870;2022-09-27T10:40:49;95105.06;;;11.50;100.00
11001;BME280;5553;48.506;8.870;2022-09-27T10:43:29;95102.28;;;11.45;100.00
11001;BME280;5553;48.506;8.870;2022-09-27T10:46:02;95104.59;;;11.53;100.00
11001;BME280;5553;48.506;8.870;2022-09-27T10:48:34;95102.19;;;11.16;100.00
11001;BME280;5553;48.506;8.870;2022-09-27T10:51:05;95096.06;;;10.38;100.00
11001;BME280;5553;48.506;8.870;2022-09-27T10:53:35;95110.31;;;10.49;100.00
11001;BME280;5553;48.506;8.870;2022-09-27T10:56:03;95107.06;;;10.17;100.00
11001;BME280;5553;48.506;8.870;2022-09-27T10:58:34;95096.25;;;10.07;100.00
11001;BME280;5553;48.506;8.870;2022-09-27T11:01:05;95103.91;;;10.08;100.00
11001;BME280;5553;48.506;8.870;2022-09-27T11:03:47;95107.31;;;10.87;100.00
11001;BME280;5553;48.506;8.870;2022-09-27T11:06:28;95088.84;;;10.46;100.00
11001;BME280;5553;48.506;8.870;2022-09-27T11:09:15;95091.75;;;10.56;100.00
11001;BME280;5553;48.506;8.870;2022-09-27T11:11:44;95088.66;;;10.59;100.00
11001;BME280;5553;48.506;8.870;2022-09-27T11:14:22;95089.13;;;10.56;100.00
11001;BME280;5553;48.506;8.870;2022-09-27T11:17:03;95075.78;;;11.16;100.00
11001;BME280;5553;48.506;8.870;2022-09-27T11:19:53;95068.34;;;11.25;98.95
11001;BME280;5553;48.506;8.870;2022-09-27T11:22:46;95055.50;;;11.28;93.66
11001;BME280;5553;48.506;8.870;2022-09-27T11:25:23;95062.72;;;12.54;93.64
11001;BME280;5553;48.506;8.870;2022-09-27T11:28:01;95053.84;;;12.03;94.60
11001;BME280;5553;48.506;8.870;2022-09-27T11:30:38;95044.75;;;12.39;89.59
11001;BME280;5553;48.506;8.870;2022-09-27T11:33:31;95031.94;;;12.19;89.08
11001;BME280;5553;48.506;8.870;2022-09-27T11:36:11;95038.75;;;11.87;89.85
11001;BME280;5553;48.506;8.870;2022-09-27T11:38:50;95040.25;;;11.71;91.14
11001;BME280;5553;48.506;8.870;2022-09-27T11:41:44;95033.47;;;11.75;89.30
11001;BME280;5553;48.506;8.870;2022-09-27T11:44:40;95027.00;;;11.94;89.87
11001;BME280;5553;48.506;8.870;2022-09-27T11:47:16;95018.75;;;11.15;90.17
11001;BME280;5553;48.506;8.870;2022-09-27T11:53:03;95039.50;;;11.47;92.72
11001;BME280;5553;48.506;8.870;2022-09-27T11:55:43;95013.38;;;10.98;92.69
11001;BME280;5553;48.506;8.870;2022-09-27T11:58:24;95033.66;;;10.74;94.05
11001;BME280;5553;48.506;8.870;2022-09-27T12:01:05;95054.03;;;10.55;96.61
11001;BME280;5553;48.506;8.870;2022-09-27T12:03:55;95047.22;;;10.06;97.37
11001;BME280;5553;48.506;8.870;2022-09-27T12:06:34;95054.63;;;9.97;100.00
11001;BME280;5553;48.506;8.870;2022-09-27T12:09:13;95069.50;;;9.36;100.00
11001;BME280;5553;48.506;8.870;2022-09-27T12:11:46;95082.75;;;9.05;100.00
11001;BME280;5553;48.506;8.870;2022-09-27T12:14:20;95082.06;;;8.91;100.00
11001;BME280;5553;48.506;8.870;2022-09-27T12:16:53;95085.41;;;8.80;100.00
11001;BME280;5553;48.506;8.870;2022-09-27T12:19:25;95088.94;;;8.67;100.00
11001;BME280;5553;48.506;8.870;2022-09-27T12:21:55;95096.63;;;8.68;100.00
11001;BME280;5553;48.506;8.870;2022-09-27T12:25:10;95100.00;;;8.44;100.00
11001;BME280;5553;48.506;8.870;2022-09-27T12:27:44;95094.28;;;8.53;100.00
11001;BME280;5553;48.506;8.870;2022-09-27T12:30:13;95094.88;;;8.81;100.00
11001;BME280;5553;48.506;8.870;2022-09-27T12:32:50;95095.25;;;9.09;100.00
11001;BME280;5553;48.506;8.870;2022-09-27T12:35:22;95087.63;;;9.01;100.00
11001;BME280;5553;48.506;8.870;2022-09-27T12:37:57;95081.88;;;8.92;100.00
11001;BME280;5553;48.506;8.870;2022-09-27T12:40:32;95071.00;;;9.07;100.00
11001;BME280;5553;48.506;8.870;2022-09-27T12:43:05;95091.19;;;9.13;100.00
11001;BME280;5553;48.506;8.870;2022-09-27T12:45:44;95074.88;;;8.80;100.00
11001;BME280;5553;48.506;8.870;2022-09-27T12:48:22;95088.97;;;8.85;100.00
11001;BME280;5553;48.506;8.870;2022-09-27T12:50:57;95072.41;;;8.60;100.00
11001;BME280;5553;48.506;8.870;2022-09-27T12:53:33;95082.72;;;8.86;100.00
11001;BME280;5553;48.506;8.870;2022-09-27T12:56:33;95079.34;;;8.79;100.00
11001;BME280;5553;48.506;8.870;2022-09-27T12:59:34;95081.88;;;8.92;100.00
11001;BME280;5553;48.506;8.870;2022-09-27T13:02:30;95060.13;;;9.77;100.00
11001;BME280;5553;48.506;8.870;2022-09-27T13:08:29;95072.94;;;9.55;100.00
11001;BME280;5553;48.506;8.870;2022-09-27T13:11:07;95067.88;;;9.35;100.00
11001;BME280;5553;48.506;8.870;2022-09-27T13:13:42;95066.84;;;9.36;100.00
11001;BME280;5553;48.506;8.870;2022-09-27T13:16:11;95048.53;;;9.96;100.00
11001;BME280;5553;48.506;8.870;2022-09-27T13:18:57;95055.16;;;10.17;100.00
11001;BME280;5553;48.506;8.870;2022-09-27T13:21:57;95042.63;;;9.83;100.00
11001;BME280;5553;48.506;8.870;2022-09-27T13:24:42;95050.47;;;10.50;100.00
11001;BME280;5553;48.506;8.870;2022-09-27T13:27:39;95047.88;;;10.73;100.00
11001;BME280;5553;48.506;8.870;2022-09-27T13:36:25;95046.78;;;9.90;100.00
11001;BME280;5553;48.506;8.870;2022-09-27T13:42:01;95043.03;;;9.31;100.00
11001;BME280;5553;48.506;8.870;2022-09-27T13:44:41;95041.44;;;9.30;100.00
11001;BME280;5553;48.506;8.870;2022-09-27T13:47:19;95055.72;;;9.16;100.00
11001;BME280;5553;48.506;8.870;2022-09-27T13:49:56;95047.75;;;9.22;100.00
11001;BME280;5553;48.506;8.870;2022-09-27T13:52:30;95046.41;;;9.20;100.00
11001;BME280;5553;48.506;8.870;2022-09-27T13:55:02;95057.50;;;9.22;100.00
11001;BME280;5553;48.506;8.870;2022-09-27T13:57:41;95041.41;;;9.12;100.00
11001;BME280;5553;48.506;8.870;2022-09-27T14:00:12;95055.59;;;9.11;100.00
11001;BME280;5553;48.506;8.870;2022-09-27T14:02:53;95063.38;;;8.99;100.00
11001;BME280;5553;48.506;8.870;2022-09-27T14:05:26;95047.44;;;8.94;100.00